Time;durP1;ratioP1;P1;durP2;ratioP2;P2;SDS_P1;SDS_P2;PMS_P1;PMS_P2;Temp;Humidity;BMP_temperature;BMP_pressure;BME280_temperature;BME280_humidity;BME280_pressure;Samples;Min_cycle;Max_cycle;Signal;HPM_P1;HPM_P2
2021/06/21 00:00:00;;;;;;;10.60;6.90;;;28.60;87.00;;;;;;6071080;23;20014;-74
2021/06/21 00:02:26;;;;;;;11.40;6.35;;;28.60;87.20;;;;;;6121334;23;20018;-77
2021/06/21 00:04:53;;;;;;;11.57;6.95;;;28.50;86.90;;;;;;6095876;23;20016;-74
2021/06/21 00:07:20;;;;;;;13.93;7.00;;;28.50;87.10;;;;;;6095311;23;20022;-74
2021/06/21 00:09:47;;;;;;;10.55;7.05;;;28.60;87.00;;;;;;6095516;23;20007;-74
2021/06/21 00:12:15;;;;;;;10.25;6.97;;;28.60;86.30;;;;;;6121091;23;20085;-75
2021/06/21 00:14:44;;;;;;;12.18;7.05;;;28.60;86.20;;;;;;6121573;23;20018;-75
2021/06/21 00:17:10;;;;;;;9.77;6.47;;;28.50;86.50;;;;;;6095342;23;20071;-74
2021/06/21 00:19:36;;;;;;;9.13;6.75;;;28.50;86.60;;;;;;6095524;23;20009;-75
2021/06/21 00:22:04;;;;;;;7.70;6.00;;;28.50;87.00;;;;;;6095370;23;20067;-76
2021/06/21 00:24:31;;;;;;;9.65;6.70;;;28.50;87.40;;;;;;6120895;23;20017;-75
2021/06/21 00:26:57;;;;;;;11.68;6.20;;;28.50;87.90;;;;;;6095458;23;20088;-76
2021/06/21 00:29:23;;;;;;;10.93;6.60;;;28.50;88.20;;;;;;6095603;23;20045;-75
2021/06/21 00:31:50;;;;;;;12.85;6.40;;;28.50;87.80;;;;;;6121366;23;20017;-75
2021/06/21 00:34:16;;;;;;;10.80;6.60;;;28.50;87.50;;;;;;6091644;23;20106;-75
2021/06/21 00:36:42;;;;;;;8.80;6.38;;;28.40;87.90;;;;;;6093629;23;20072;-77
2021/06/21 00:39:10;;;;;;;11.90;6.78;;;28.40;87.90;;;;;;6091890;23;20045;-74
2021/06/21 00:41:37;;;;;;;10.25;6.30;;;28.30;88.10;;;;;;6093394;23;20014;-74
2021/06/21 00:44:04;;;;;;;10.10;6.03;;;28.30;88.50;;;;;;6093275;23;20093;-74
2021/06/21 00:46:30;;;;;;;9.18;6.60;;;28.30;88.90;;;;;;6092939;23;20100;-76
2021/06/21 00:48:56;;;;;;;12.35;6.72;;;28.20;88.70;;;;;;6091778;23;20025;-75
2021/06/21 00:51:22;;;;;;;12.35;6.43;;;28.20;89.30;;;;;;6093296;23;20018;-75
2021/06/21 00:53:49;;;;;;;14.55;7.05;;;28.10;89.60;;;;;;6092969;23;20027;-74
2021/06/21 00:56:16;;;;;;;10.98;7.40;;;28.10;88.70;;;;;;6091757;23;20057;-76
2021/06/21 00:58:44;;;;;;;10.13;6.22;;;28.10;88.10;;;;;;6091836;23;20449;-75
2021/06/21 01:01:10;;;;;;;12.43;6.65;;;28.00;87.30;;;;;;6092898;23;20011;-75
2021/06/21 01:03:36;;;;;;;13.73;6.72;;;28.00;87.60;;;;;;6093346;23;20018;-74
2021/06/21 01:06:03;;;;;;;11.55;7.10;;;28.00;87.50;;;;;;6093316;23;20006;-75
2021/06/21 01:08:29;;;;;;;9.13;6.82;;;28.00;87.20;;;;;;6115938;23;20010;-75
2021/06/21 01:10:56;;;;;;;10.63;6.53;;;28.00;87.60;;;;;;6091854;23;20337;-76
2021/06/21 01:13:47;;;;;;;11.60;6.20;;;28.00;87.00;;;;;;6092767;23;20022;-76
2021/06/21 01:16:29;;;;;;;10.18;7.18;;;28.00;86.80;;;;;;6091880;23;20460;-74
2021/06/21 01:19:04;;;;;;;15.32;6.88;;;28.00;86.80;;;;;;6067816;23;20010;-77
2021/06/21 01:22:09;;;;;;;11.57;6.35;;;28.00;86.50;;;;;;6067746;23;20100;-76
2021/06/21 01:25:09;;;;;;;10.35;6.50;;;28.00;86.20;;;;;;6158991;23;20419;-77
2021/06/21 01:27:44;;;;;;;10.55;6.65;;;28.00;86.30;;;;;;6158965;23;20063;-76
2021/06/21 01:30:13;;;;;;;11.80;6.32;;;28.10;85.90;;;;;;6114429;23;20018;-74
2021/06/21 01:32:50;;;;;;;12.50;6.80;;;28.20;86.30;;;;;;6067593;23;20049;-75
2021/06/21 01:35:22;;;;;;;11.30;6.60;;;28.20;86.50;;;;;;6093182;23;20018;-76
2021/06/21 01:37:54;;;;;;;15.05;7.13;;;28.30;86.50;;;;;;6091971;23;20025;-76
2021/06/21 01:40:21;;;;;;;14.93;6.80;;;28.30;87.20;;;;;;6093245;23;20015;-77
2021/06/21 01:42:59;;;;;;;9.68;6.70;;;28.40;87.80;;;;;;6067159;23;20093;-76
2021/06/21 01:45:27;;;;;;;8.95;7.15;;;28.40;88.20;;;;;;6093157;23;20508;-76
2021/06/21 01:47:54;;;;;;;8.95;6.38;;;28.50;88.80;;;;;;6067996;23;20054;-77
2021/06/21 01:50:23;;;;;;;11.50;6.78;;;28.50;90.00;;;;;;6067631;23;20080;-77
2021/06/21 01:53:06;;;;;;;10.75;6.78;;;28.50;90.50;;;;;;6091561;23;20452;-77
2021/06/21 01:55:34;;;;;;;12.35;6.82;;;28.60;91.70;;;;;;6091760;23;20025;-77
2021/06/21 01:58:01;;;;;;;12.57;7.63;;;28.50;91.40;;;;;;6067539;23;20045;-77
2021/06/21 02:00:28;;;;;;;10.75;7.88;;;28.50;91.70;;;;;;6093125;23;20014;-77
2021/06/21 02:02:56;;;;;;;9.25;7.18;;;28.40;92.10;;;;;;6093067;23;20077;-77
2021/06/21 02:05:23;;;;;;;9.55;6.75;;;28.30;92.20;;;;;;6091540;23;20010;-75
2021/06/21 02:07:50;;;;;;;12.40;8.23;;;28.30;92.30;;;;;;6091476;23;20010;-76
2021/06/21 02:10:19;;;;;;;14.05;7.97;;;28.20;92.40;;;;;;6093787;23;20017;-77
2021/06/21 02:12:47;;;;;;;10.13;6.97;;;28.20;92.50;;;;;;6067424;23;20010;-76
2021/06/21 02:15:14;;;;;;;12.50;7.57;;;28.10;92.50;;;;;;6091151;23;20046;-76
2021/06/21 02:17:41;;;;;;;13.25;7.88;;;28.10;92.40;;;;;;6091400;23;20019;-76
2021/06/21 02:20:09;;;;;;;17.90;9.68;;;28.10;92.80;;;;;;6091446;23;20092;-76
2021/06/21 02:22:35;;;;;;;16.77;9.48;;;28.20;92.40;;;;;;6091381;23;20092;-76
2021/06/21 02:25:04;;;;;;;16.27;9.40;;;28.20;92.50;;;;;;6091151;23;20424;-74
2021/06/21 02:27:31;;;;;;;18.33;9.00;;;;;;;;;;6067291;23;20101;-76
2021/06/21 02:29:59;;;;;;;19.80;9.45;;;28.30;93.50;;;;;;6092911;23;20322;-76
2021/06/21 02:32:25;;;;;;;12.68;8.90;;;28.50;91.90;;;;;;6090886;23;20026;-74
2021/06/21 02:34:52;;;;;;;16.70;9.10;;;28.50;92.80;;;;;;6091546;23;20539;-75
2021/06/21 02:37:18;;;;;;;16.38;9.60;;;28.70;92.10;;;;;;6091328;23;20022;-75
2021/06/21 02:39:44;;;;;;;20.35;8.60;;;28.80;92.90;;;;;;6091409;23;20140;-74
2021/06/21 02:42:11;;;;;;;15.15;9.10;;;28.90;92.20;;;;;;6067715;23;20037;-75
2021/06/21 02:44:37;;;;;;;15.05;8.50;;;28.90;92.20;;;;;;6067371;23;20037;-74
2021/06/21 02:47:04;;;;;;;16.27;9.38;;;29.10;92.30;;;;;;6091062;23;20011;-75
2021/06/21 02:49:30;;;;;;;15.73;8.95;;;29.10;91.40;;;;;;6067248;23;20018;-75
2021/06/21 02:52:14;;;;;;;16.67;8.35;;;29.20;91.40;;;;;;6091512;23;20096;-75
2021/06/21 02:55:17;;;;;;;11.10;8.07;;;29.30;92.10;;;;;;6067190;23;20023;-74
2021/06/21 02:57:56;;;;;;;17.02;8.30;;;;;;;;;;6092265;23;20019;-75
2021/06/21 03:00:22;;;;;;;16.98;9.07;;;;;;;;;;6092704;23;20101;-75
2021/06/21 03:02:50;;;;;;;16.00;8.63;;;29.50;92.70;;;;;;6091110;23;20021;-74
2021/06/21 03:05:17;;;;;;;13.05;7.55;;;29.70;92.20;;;;;;6092831;23;20041;-74
2021/06/21 03:07:46;;;;;;;10.98;8.32;;;29.70;91.90;;;;;;6091020;23;20014;-74
2021/06/21 03:10:13;;;;;;;13.25;8.88;;;29.80;93.10;;;;;;6092146;23;20337;-74
2021/06/21 03:12:42;;;;;;;14.95;9.35;;;29.70;92.10;;;;;;6066942;23;20010;-75
2021/06/21 03:15:09;;;;;;;15.55;9.05;;;29.90;91.50;;;;;;6090833;23;20430;-76
2021/06/21 03:17:36;;;;;;;17.48;9.10;;;29.80;92.10;;;;;;6092474;23;20018;-75
2021/06/21 03:20:03;;;;;;;16.10;8.80;;;29.80;91.50;;;;;;6091115;23;20006;-75
2021/06/21 03:22:29;;;;;;;14.02;9.38;;;29.80;92.10;;;;;;6090999;23;20014;-75
2021/06/21 03:24:56;;;;;;;17.10;9.20;;;29.80;91.10;;;;;;6090828;23;20014;-75
2021/06/21 03:27:35;;;;;;;13.75;8.07;;;29.80;91.40;;;;;;6090884;23;20014;-77
2021/06/21 03:30:07;;;;;;;13.45;7.43;;;29.90;92.60;;;;;;6091111;23;20020;-77
2021/06/21 03:32:37;;;;;;;9.48;7.85;;;30.00;92.10;;;;;;6090442;23;20025;-76
2021/06/21 03:35:08;;;;;;;12.82;7.75;;;30.10;92.90;;;;;;6090516;23;20018;-74
2021/06/21 03:37:36;;;;;;;20.20;9.65;;;;;;;;;;6091175;23;20018;-74
2021/06/21 03:40:09;;;;;;;14.85;7.95;;;30.10;90.70;;;;;;6090830;23;20066;-77
2021/06/21 03:42:35;;;;;;;15.98;8.63;;;30.30;90.00;;;;;;6092055;23;20021;-76
2021/06/21 03:45:01;;;;;;;14.00;8.43;;;30.50;90.90;;;;;;6091965;23;20026;-79
2021/06/21 03:47:27;;;;;;;13.60;8.00;;;30.50;90.40;;;;;;6090705;23;20010;-76
2021/06/21 03:49:54;;;;;;;14.48;8.35;;;30.60;90.10;;;;;;6090802;23;20018;-81
2021/06/21 03:52:20;;;;;;;15.00;8.13;;;30.70;90.20;;;;;;6092212;23;20230;-81
2021/06/21 03:54:47;;;;;;;14.93;7.88;;;30.80;89.70;;;;;;6066684;23;20014;-80
2021/06/21 03:57:14;;;;;;;9.68;7.55;;;30.80;89.70;;;;;;6091961;23;20015;-80
2021/06/21 03:59:40;;;;;;;19.48;8.80;;;30.90;89.60;;;;;;6092126;23;20429;-82
2021/06/21 04:02:07;;;;;;;11.40;6.97;;;31.00;90.00;;;;;;6090896;23;20017;-79
2021/06/21 04:04:33;;;;;;;13.63;7.40;;;31.10;90.30;;;;;;6091671;23;20014;-78
2021/06/21 04:07:00;;;;;;;9.40;6.85;;;31.10;90.20;;;;;;6090718;23;20021;-77
2021/06/21 04:09:26;;;;;;;13.00;7.72;;;31.10;90.40;;;;;;6091444;23;20018;-77
2021/06/21 04:11:52;;;;;;;11.10;7.28;;;31.20;89.80;;;;;;6067498;23;20010;-77
2021/06/21 04:14:18;;;;;;;10.48;7.35;;;31.20;87.90;;;;;;6067757;23;20348;-78
2021/06/21 04:16:47;;;;;;;11.02;7.18;;;31.20;88.10;;;;;;6091950;23;20014;-83
2021/06/21 04:19:18;;;;;;;11.52;6.90;;;31.30;88.00;;;;;;6045120;23;20128;-83
2021/06/21 04:21:44;;;;;;;11.50;6.68;;;31.30;87.40;;;;;;6091698;23;20014;-81
2021/06/21 04:24:10;;;;;;;16.80;6.82;;;31.40;88.40;;;;;;6092969;23;20022;-81
2021/06/21 04:26:44;;;;;;;14.20;6.45;;;31.40;87.40;;;;;;6091741;23;20006;-82
2021/06/21 04:29:15;;;;;;;11.83;6.57;;;31.40;86.40;;;;;;6045457;23;20018;-81
2021/06/21 04:31:44;;;;;;;13.75;6.10;;;31.50;87.30;;;;;;6069424;23;20025;-82
2021/06/21 04:34:11;;;;;;;13.43;5.57;;;31.60;88.10;;;;;;6091626;23;20053;-79
2021/06/21 04:36:42;;;;;;;10.48;5.57;;;31.60;88.70;;;;;;6091796;23;20045;-81
2021/06/21 04:39:12;;;;;;;8.60;5.80;;;31.70;90.00;;;;;;6093120;23;20038;-81
2021/06/21 04:41:38;;;;;;;10.43;5.40;;;31.80;91.00;;;;;;6068163;23;20040;-85
2021/06/21 04:44:13;;;;;;;10.00;5.97;;;;;;;;;;6092641;23;20144;-84
2021/06/21 04:46:42;;;;;;;10.52;5.90;;;;;;;;;;6092583;23;20018;-83
2021/06/21 04:49:28;;;;;;;8.80;5.80;;;31.90;92.10;;;;;;6244290;23;20010;-85
2021/06/21 04:55:43;;;;;;;;;;;;;;;;;;;;;
2021/06/21 04:58:34;;;;;;;8.27;5.20;;;;;;;;;;6243776;23;20087;-84
2021/06/21 05:01:46;;;;;;;9.85;4.90;;;;;;;;;;6124475;23;20602;-84
2021/06/21 05:04:46;;;;;;;10.60;5.50;;;;;;;;;;6243915;23;20074;-84
2021/06/21 05:07:48;;;;;;;11.95;4.50;;;;;;;;;;6244783;23;20108;-83
2021/06/21 05:10:41;;;;;;;7.80;4.80;;;;;;;;;;6222261;23;20019;-83
2021/06/21 05:13:29;;;;;;;10.50;4.70;;;;;;;;;;6217932;23;20027;-83
2021/06/21 05:16:30;;;;;;;6.93;3.97;;;;;;;;;;6244197;23;20354;-81
2021/06/21 05:19:13;;;;;;;;;;;;;;;;;;;;;
2021/06/21 05:22:02;;;;;;;;;;;;;;;;;;;;;
2021/06/21 05:25:38;;;;;;;;;;;;;;;;;;;;;
2021/06/21 05:28:31;;;;;;;10.68;3.70;;;;;;;;;;6133068;23;20025;-82
2021/06/21 05:31:12;;;;;;;;;;;;;;;;;;;;;
2021/06/21 05:34:40;;;;;;;8.07;4.07;;;33.00;86.70;;;;;;6117103;23;20480;-82
2021/06/21 05:37:14;;;;;;;9.07;4.05;;;33.10;89.60;;;;;;6111249;23;20017;-80
2021/06/21 05:40:11;;;;;;;6.43;3.45;;;33.20;90.00;;;;;;6122508;23;20096;-84
2021/06/21 05:42:56;;;;;;;8.18;3.65;;;;;;;;;;6076789;23;20038;-81
2021/06/21 05:45:32;;;;;;;7.07;3.67;;;;;;;;;;6073702;23;20028;-84
2021/06/21 05:48:28;;;;;;;5.72;2.45;;;33.00;90.00;;;;;;6101489;23;20026;-85
2021/06/21 05:51:22;;;;;;;8.93;3.72;;;;;;;;;;6063213;23;20101;-81
2021/06/21 05:53:48;;;;;;;6.65;3.47;;;33.10;88.00;;;;;;6061099;23;20085;-85
2021/06/21 05:56:14;;;;;;;11.63;3.22;;;33.40;86.10;;;;;;6037524;23;20010;-81
2021/06/21 05:58:41;;;;;;;13.32;2.80;;;33.30;85.50;;;;;;6037450;23;20015;-74
2021/06/21 06:01:07;;;;;;;13.52;3.30;;;33.20;84.60;;;;;;6037372;23;20449;-76
2021/06/21 06:03:33;;;;;;;8.15;2.90;;;33.20;86.10;;;;;;6037322;23;20038;-77
2021/06/21 06:06:01;;;;;;;27.63;3.25;;;33.20;86.20;;;;;;6061625;23;20011;-75
2021/06/21 06:08:27;;;;;;;8.75;2.80;;;33.10;87.10;;;;;;6061334;23;20053;-75
2021/06/21 06:10:53;;;;;;;8.68;2.90;;;33.10;87.50;;;;;;6037688;23;20010;-76
2021/06/21 06:13:19;;;;;;;8.57;2.67;;;33.00;88.60;;;;;;6061193;23;20011;-74
2021/06/21 06:15:46;;;;;;;13.30;2.55;;;;;;;;;;6061291;23;20473;-76
2021/06/21 06:18:13;;;;;;;6.88;2.30;;;;;;;;;;6061316;23;20516;-75
2021/06/21 06:20:39;;;;;;;7.88;2.47;;;32.70;89.90;;;;;;6061271;23;20449;-77
2021/06/21 06:23:05;;;;;;;4.70;2.15;;;;;;;;;;6116230;23;20016;-77
2021/06/21 06:25:37;;;;;;;5.60;2.35;;;;;;;;;;6096164;23;20030;-75
2021/06/21 06:28:04;;;;;;;6.30;2.10;;;32.70;87.80;;;;;;6073114;23;20032;-74
2021/06/21 06:30:30;;;;;;;3.78;2.10;;;32.80;87.00;;;;;;6071471;23;20037;-75
2021/06/21 06:32:56;;;;;;;7.22;1.98;;;32.80;86.50;;;;;;6121523;23;20377;-75
2021/06/21 06:35:22;;;;;;;11.77;2.75;;;32.80;87.40;;;;;;6121728;23;20038;-74
2021/06/21 06:37:49;;;;;;;6.45;2.10;;;32.80;88.30;;;;;;6095675;23;20010;-74
2021/06/21 06:40:17;;;;;;;5.53;2.40;;;32.80;89.00;;;;;;6121871;23;20096;-74
2021/06/21 06:42:43;;;;;;;10.80;2.67;;;;;;;;;;6095911;23;20024;-75
2021/06/21 06:45:10;;;;;;;7.38;2.90;;;;;;;;;;6121919;23;20382;-77
2021/06/21 06:47:37;;;;;;;7.22;2.75;;;;;;;;;;6121495;23;20357;-74
2021/06/21 06:50:05;;;;;;;9.15;2.35;;;32.70;84.60;;;;;;6121857;23;20017;-75
2021/06/21 06:52:32;;;;;;;7.63;3.78;;;32.60;85.00;;;;;;6096443;23;20010;-74
2021/06/21 06:57:44;;;;;;;6.35;3.17;;;32.60;86.30;;;;;;6076833;23;20010;-75
2021/06/21 07:00:12;;;;;;;6.97;3.45;;;32.60;87.30;;;;;;6121834;23;20507;-74
2021/06/21 07:02:43;;;;;;;6.97;3.00;;;32.60;88.90;;;;;;6121816;23;20037;-74
2021/06/21 07:05:11;;;;;;;5.70;3.10;;;32.60;89.80;;;;;;6095837;23;20017;-74
2021/06/21 07:07:38;;;;;;;6.78;3.00;;;32.10;84.70;;;;;;6095877;23;20014;-74
2021/06/21 07:10:05;;;;;;;7.57;3.63;;;32.60;85.80;;;;;;6121857;23;20334;-75
2021/06/21 07:12:31;;;;;;;6.55;3.00;;;32.60;86.10;;;;;;6096006;23;20092;-76
2021/06/21 07:14:57;;;;;;;7.53;3.63;;;32.60;86.20;;;;;;6121817;23;20045;-75
2021/06/21 07:17:23;;;;;;;11.38;3.67;;;32.60;85.90;;;;;;6122204;23;20089;-75
2021/06/21 07:19:49;;;;;;;10.45;3.60;;;32.60;85.80;;;;;;6095745;23;20014;-75
2021/06/21 07:22:15;;;;;;;8.82;3.22;;;;;;;;;;6071514;23;20104;-77
2021/06/21 07:24:42;;;;;;;9.40;3.60;;;;;;;;;;6095571;23;20056;-74
2021/06/21 07:27:08;;;;;;;5.82;3.25;;;32.50;90.20;;;;;;6071767;23;20021;-74
2021/06/21 07:29:34;;;;;;;4.07;3.10;;;;;;;;;;6095662;23;20456;-73
2021/06/21 07:32:01;;;;;;;4.25;3.58;;;;;;;;;;6095516;23;20025;-75
2021/06/21 07:34:27;;;;;;;9.73;4.05;;;;;;;;;;6095639;23;20088;-75
2021/06/21 07:36:54;;;;;;;8.60;4.03;;;;;;;;;;6095810;23;20010;-74
2021/06/21 07:39:21;;;;;;;8.27;3.65;;;;;;;;;;6095478;23;20016;-75
2021/06/21 07:41:48;;;;;;;6.30;3.67;;;32.30;88.10;;;;;;6096156;23;20349;-77
2021/06/21 07:44:14;;;;;;;10.40;4.07;;;32.40;88.80;;;;;;6096757;23;20343;-76
2021/06/21 07:46:40;;;;;;;6.47;3.70;;;32.50;89.90;;;;;;6122618;23;20018;-76
2021/06/21 07:49:07;;;;;;;6.00;2.35;;;;;;;;;;6096566;23;20067;-75
2021/06/21 07:51:33;;;;;;;9.32;2.45;;;;;;;;;;6122612;23;20017;-75
2021/06/21 07:54:00;;;;;;;7.30;2.75;;;;;;;;;;6122856;23;20325;-76
2021/06/21 07:56:27;;;;;;;7.20;2.70;;;;;;;;;;6122975;23;20014;-76
2021/06/21 07:58:53;;;;;;;5.45;2.42;;;;;;;;;;6096588;23;20079;-75
2021/06/21 08:01:20;;;;;;;9.40;3.05;;;;;;;;;;6122648;23;20010;-75
2021/06/21 08:03:46;;;;;;;4.25;2.20;;;32.40;85.20;;;;;;6073099;23;20056;-76
2021/06/21 08:06:12;;;;;;;4.65;2.65;;;32.40;84.30;;;;;;6122168;23;20448;-76
2021/06/21 08:08:40;;;;;;;5.43;2.67;;;32.40;86.60;;;;;;6096453;23;20464;-74
2021/06/21 08:11:06;;;;;;;9.07;2.92;;;;;;;;;;6122648;23;20436;-74
2021/06/21 08:13:33;;;;;;;6.07;2.22;;;;;;;;;;6122596;23;20014;-74
2021/06/21 08:16:00;;;;;;;6.25;2.83;;;32.20;85.00;;;;;;6122598;23;20018;-73
2021/06/21 08:18:26;;;;;;;4.43;1.90;;;32.30;84.60;;;;;;6096276;23;20020;-74
2021/06/21 08:20:52;;;;;;;6.22;2.60;;;32.30;83.20;;;;;;6122162;23;20037;-73
2021/06/21 08:23:19;;;;;;;6.53;2.22;;;32.30;83.50;;;;;;6096590;23;20503;-73
2021/06/21 08:25:45;;;;;;;6.00;2.58;;;32.30;83.10;;;;;;6072584;23;20092;-73
2021/06/21 08:28:12;;;;;;;4.40;2.30;;;32.30;83.80;;;;;;6096651;23;20080;-75
2021/06/21 08:30:38;;;;;;;4.47;2.38;;;32.40;84.50;;;;;;6122473;23;20010;-72
2021/06/21 08:33:05;;;;;;;8.50;2.35;;;32.30;84.80;;;;;;6072398;23;20029;-74
2021/06/21 08:35:31;;;;;;;4.25;2.22;;;32.30;86.00;;;;;;6072544;23;20033;-73
2021/06/21 08:37:58;;;;;;;7.75;2.28;;;;;;;;;;6122133;23;20495;-77
2021/06/21 08:40:27;;;;;;;3.40;2.38;;;;;;;;;;6072271;23;20010;-76
2021/06/21 08:42:53;;;;;;;6.57;2.30;;;;;;;;;;6122383;23;20014;-77
2021/06/21 08:45:20;;;;;;;7.53;2.63;;;32.00;87.00;;;;;;6072520;23;20013;-77
2021/06/21 08:47:46;;;;;;;3.05;1.98;;;32.20;86.40;;;;;;6122010;23;20021;-77
2021/06/21 08:50:14;;;;;;;5.60;2.67;;;;;;;;;;6072626;23;20006;-77
2021/06/21 08:52:43;;;;;;;5.35;2.45;;;;;;;;;;6121537;23;20018;-77
2021/06/21 08:55:10;;;;;;;4.72;2.45;;;;;;;;;;6121975;23;20022;-78
2021/06/21 08:57:38;;;;;;;4.93;2.20;;;;;;;;;;6073133;23;20010;-79
2021/06/21 09:00:06;;;;;;;3.65;2.20;;;;;;;;;;6097207;23;20395;-79
2021/06/21 09:02:33;;;;;;;5.43;2.45;;;;;;;;;;6096594;23;20010;-79
2021/06/21 09:05:00;;;;;;;6.32;2.25;;;;;;;;;;6096260;23;20040;-81
2021/06/21 09:07:28;;;;;;;3.95;2.17;;;;;;;;;;6096430;23;20096;-78
2021/06/21 09:09:57;;;;;;;5.38;2.00;;;;;;;;;;6072449;23;20101;-77
2021/06/21 09:12:29;;;;;;;7.80;2.30;;;;;;;;;;6096389;23;20018;-76
2021/06/21 09:14:56;;;;;;;5.13;2.30;;;;;;;;;;6096316;23;20064;-77
2021/06/21 09:17:24;;;;;;;4.55;2.38;;;;;;;;;;6072836;23;20018;-79
2021/06/21 09:19:53;;;;;;;6.75;2.10;;;;;;;;;;6096837;23;20021;-80
2021/06/21 09:22:30;;;;;;;5.00;2.42;;;32.10;85.30;;;;;;6121935;23;20018;-78
2021/06/21 09:25:04;;;;;;;6.95;2.72;;;32.20;83.70;;;;;;6096281;23;20016;-79
2021/06/21 09:27:31;;;;;;;6.22;2.40;;;32.20;83.30;;;;;;6072325;23;20093;-76
2021/06/21 09:30:05;;;;;;;8.43;2.40;;;32.30;82.00;;;;;;6072225;23;20101;-76
2021/06/21 09:32:47;;;;;;;3.58;2.08;;;32.30;82.30;;;;;;6122682;23;20431;-81
2021/06/21 09:35:39;;;;;;;7.50;2.22;;;32.20;81.70;;;;;;6096437;23;20064;-80
2021/06/21 09:38:13;;;;;;;4.88;2.05;;;32.20;82.10;;;;;;6122377;23;20436;-78
2021/06/21 09:40:48;;;;;;;6.20;1.75;;;32.10;81.10;;;;;;6096345;23;20017;-76
2021/06/21 09:43:34;;;;;;;4.47;1.58;;;32.10;80.00;;;;;;6096215;23;20097;-80
2021/06/21 09:46:12;;;;;;;7.53;1.70;;;32.00;78.30;;;;;;6096707;23;20010;-78
2021/06/21 09:48:44;;;;;;;8.57;1.90;;;32.00;77.20;;;;;;6072335;23;20013;-79
2021/06/21 09:51:17;;;;;;;9.15;2.05;;;32.00;76.50;;;;;;6121936;23;20033;-74
2021/06/21 09:53:55;;;;;;;6.90;1.80;;;32.00;76.60;;;;;;6072170;23;20464;-81
2021/06/21 09:56:42;;;;;;;5.07;2.28;;;32.10;77.40;;;;;;6072648;23;20022;-79
2021/06/21 09:59:18;;;;;;;6.00;1.90;;;32.00;77.30;;;;;;6072558;23;20433;-79
2021/06/21 10:01:44;;;;;;;7.22;1.70;;;32.00;77.70;;;;;;6122237;23;20014;-78
2021/06/21 10:04:24;;;;;;;6.55;1.90;;;32.00;78.60;;;;;;6071841;23;20014;-77
2021/06/21 10:06:50;;;;;;;2.22;2.03;;;32.00;79.10;;;;;;6096402;23;20459;-77
2021/06/21 10:09:16;;;;;;;2.63;1.88;;;32.00;78.60;;;;;;6096339;23;20013;-75
2021/06/21 10:11:46;;;;;;;4.25;1.80;;;31.90;77.60;;;;;;6096107;23;20040;-79
2021/06/21 10:14:14;;;;;;;7.00;2.22;;;32.00;78.10;;;;;;6096645;23;20018;-76
2021/06/21 10:16:42;;;;;;;3.47;2.00;;;32.00;78.80;;;;;;6096110;23;20021;-76
2021/06/21 10:19:09;;;;;;;5.05;1.77;;;32.00;79.90;;;;;;6096728;23;20018;-77
2021/06/21 10:21:38;;;;;;;2.17;1.90;;;32.10;79.10;;;;;;6096443;23;20021;-76
2021/06/21 10:24:05;;;;;;;7.40;2.55;;;32.10;79.20;;;;;;6121960;23;20041;-77
2021/06/21 10:26:31;;;;;;;5.00;1.80;;;32.10;79.00;;;;;;6072195;23;20018;-76
2021/06/21 10:28:58;;;;;;;4.75;1.73;;;32.20;79.50;;;;;;6096407;23;20102;-76
2021/06/21 10:31:29;;;;;;;3.92;1.52;;;32.20;78.70;;;;;;6072068;23;20059;-76
2021/06/21 10:34:00;;;;;;;3.72;1.60;;;32.20;79.10;;;;;;6072201;23;20021;-78
2021/06/21 10:36:51;;;;;;;3.10;1.60;;;32.10;77.90;;;;;;6096346;23;20010;-80
2021/06/21 10:39:22;;;;;;;3.47;1.50;;;32.00;78.00;;;;;;6072134;23;20029;-78
2021/06/21 10:42:07;;;;;;;6.90;1.83;;;32.00;77.80;;;;;;6096143;23;20023;-79
2021/06/21 10:44:42;;;;;;;3.30;1.80;;;31.90;78.10;;;;;;6071779;23;20005;-76
2021/06/21 10:47:26;;;;;;;4.35;1.85;;;31.90;77.60;;;;;;6096454;23;20010;-76
2021/06/21 10:50:21;;;;;;;10.02;1.52;;;31.90;77.40;;;;;;6072103;23;20101;-78
2021/06/21 10:52:57;;;;;;;2.33;1.50;;;32.00;78.80;;;;;;6123178;23;20013;-77
2021/06/21 10:55:26;;;;;;;2.53;1.65;;;32.00;79.40;;;;;;6095778;23;20024;-76
2021/06/21 10:58:02;;;;;;;4.60;1.95;;;32.10;80.00;;;;;;6071565;23;20096;-78
2021/06/21 11:00:33;;;;;;;4.53;2.05;;;32.10;81.60;;;;;;6072057;23;20010;-76
2021/06/21 11:03:01;;;;;;;4.60;1.80;;;32.10;82.00;;;;;;6072628;23;20317;-75
2021/06/21 11:05:38;;;;;;;6.72;2.00;;;32.10;83.20;;;;;;6071704;23;20010;-73
2021/06/21 11:08:15;;;;;;;3.95;2.00;;;32.10;85.30;;;;;;6096372;23;20020;-74
2021/06/21 11:10:42;;;;;;;3.35;1.88;;;32.10;82.80;;;;;;6096067;23;20456;-76
2021/06/21 11:13:36;;;;;;;4.68;2.00;;;32.20;83.00;;;;;;6071773;23;20014;-78
2021/06/21 11:16:21;;;;;;;6.97;1.90;;;32.20;84.50;;;;;;6095556;23;20014;-80
2021/06/21 11:18:57;;;;;;;4.18;1.80;;;32.20;82.70;;;;;;6096227;23;20021;-76
2021/06/21 11:21:23;;;;;;;3.03;2.00;;;32.20;80.60;;;;;;6096016;23;20087;-76
2021/06/21 11:23:52;;;;;;;3.33;1.73;;;32.20;81.90;;;;;;6071785;23;20017;-76
2021/06/21 11:26:18;;;;;;;3.92;2.00;;;32.10;81.90;;;;;;6071832;23;20010;-75
2021/06/21 11:28:46;;;;;;;5.03;1.88;;;32.10;81.50;;;;;;6096042;23;20101;-80
2021/06/21 11:31:18;;;;;;;4.40;1.80;;;32.10;81.90;;;;;;6072039;23;20039;-85
2021/06/21 11:33:56;;;;;;;3.42;1.70;;;32.20;82.30;;;;;;6071818;23;20030;-81
2021/06/21 11:36:38;;;;;;;4.13;1.98;;;32.20;82.10;;;;;;6095525;23;20059;-77
2021/06/21 11:39:24;;;;;;;2.08;1.60;;;32.00;80.70;;;;;;6121529;23;20435;-75
2021/06/21 11:42:04;;;;;;;5.22;1.80;;;32.00;80.90;;;;;;6071358;23;20448;-74
2021/06/21 11:44:40;;;;;;;3.58;1.83;;;32.00;81.40;;;;;;6095423;23;20057;-74
2021/06/21 11:47:25;;;;;;;2.75;1.80;;;32.10;82.60;;;;;;6072218;23;20421;-72
2021/06/21 11:49:57;;;;;;;3.42;1.80;;;32.10;83.20;;;;;;6095573;23;20021;-74
2021/06/21 11:52:26;;;;;;;2.85;2.03;;;32.20;84.40;;;;;;6095993;23;20036;-72
2021/06/21 11:54:54;;;;;;;2.75;1.77;;;;;;;;;;6095461;23;20018;-73
2021/06/21 11:57:23;;;;;;;5.15;1.80;;;;;;;;;;6095470;23;20100;-75
2021/06/21 11:59:51;;;;;;;4.68;2.05;;;;;;;;;;6095096;23;20068;-73
2021/06/21 12:02:22;;;;;;;4.53;2.33;;;;;;;;;;6095579;23;20014;-73
2021/06/21 12:04:51;;;;;;;5.35;1.90;;;;;;;;;;6071584;23;20014;-74
2021/06/21 12:07:33;;;;;;;4.47;2.00;;;;;;;;;;6071662;23;20200;-74
2021/06/21 12:10:04;;;;;;;8.27;2.38;;;32.10;87.80;;;;;;6095659;23;20063;-74
2021/06/21 12:12:32;;;;;;;4.93;2.20;;;;;;;;;;6071643;23;20100;-75
2021/06/21 12:14:59;;;;;;;6.00;2.35;;;;;;;;;;6071677;23;20343;-75
2021/06/21 12:17:28;;;;;;;3.75;2.00;;;31.90;88.00;;;;;;6095336;23;20006;-76
2021/06/21 12:20:19;;;;;;;6.72;2.25;;;;;;;;;;6070860;23;20014;-77
2021/06/21 12:22:57;;;;;;;5.10;1.98;;;;;;;;;;6121459;23;20089;-76
2021/06/21 12:25:26;;;;;;;2.20;1.92;;;;;;;;;;6121286;23;20037;-77
2021/06/21 12:27:53;;;;;;;2.92;2.03;;;31.80;88.60;;;;;;6121354;23;20068;-75
2021/06/21 12:30:43;;;;;;;2.20;1.90;;;31.90;89.50;;;;;;6096189;23;20020;-76
2021/06/21 12:33:35;;;;;;;3.08;1.63;;;31.90;90.80;;;;;;6096597;23;20360;-77
2021/06/21 12:36:01;;;;;;;6.32;2.22;;;31.80;85.50;;;;;;6096786;23;20097;-78
2021/06/21 12:38:29;;;;;;;5.10;2.28;;;31.80;86.30;;;;;;6096276;23;20055;-79
2021/06/21 12:40:55;;;;;;;2.38;2.17;;;31.80;88.70;;;;;;6122286;23;20037;-80
2021/06/21 12:43:22;;;;;;;3.65;2.22;;;;;;;;;;6096581;23;20045;-80
2021/06/21 12:45:49;;;;;;;4.72;1.67;;;;;;;;;;6122440;23;20013;-79
2021/06/21 12:48:16;;;;;;;2.58;1.83;;;;;;;;;;6072997;23;20017;-78
2021/06/21 12:50:43;;;;;;;4.80;2.03;;;;;;;;;;6122022;23;20467;-81
2021/06/21 12:53:10;;;;;;;2.50;2.03;;;;;;;;;;6096190;23;20022;-79
2021/06/21 12:55:37;;;;;;;3.42;2.00;;;;;;;;;;6072388;23;20018;-78
2021/06/21 12:58:08;;;;;;;6.93;2.33;;;;;;;;;;6096898;23;20390;-80
2021/06/21 13:00:42;;;;;;;4.25;1.90;;;;;;;;;;6096501;23;20013;-76
2021/06/21 13:03:12;;;;;;;2.80;2.20;;;;;;;;;;6096770;23;20010;-78
2021/06/21 13:05:49;;;;;;;4.45;2.20;;;31.60;90.70;;;;;;6072375;23;20063;-78
2021/06/21 13:08:32;;;;;;;6.88;2.10;;;31.60;88.20;;;;;;6096667;23;20014;-89
2021/06/21 13:11:10;;;;;;;4.43;2.40;;;31.60;87.50;;;;;;6072746;23;20010;-77
2021/06/21 13:13:50;;;;;;;7.35;2.08;;;31.60;87.10;;;;;;6122328;23;20017;-77
2021/06/21 13:16:23;;;;;;;3.55;1.98;;;31.70;89.80;;;;;;6122111;23;20506;-76
2021/06/21 13:18:54;;;;;;;12.55;2.20;;;31.70;87.80;;;;;;6072644;23;20109;-78
2021/06/21 13:21:39;;;;;;;8.73;2.90;;;;;;;;;;6096620;23;20017;-76
2021/06/21 13:24:07;;;;;;;6.25;1.90;;;;;;;;;;6096560;23;20441;-77
2021/06/21 13:26:35;;;;;;;6.53;1.90;;;;;;;;;;6122489;23;20018;-81
2021/06/21 13:29:17;;;;;;;5.93;2.08;;;;;;;;;;6096638;23;20010;-82
2021/06/21 13:31:45;;;;;;;6.03;2.28;;;;;;;;;;6072660;23;20510;-82
2021/06/21 13:34:12;;;;;;;8.68;2.17;;;;;;;;;;6095844;23;20029;-83
2021/06/21 13:37:00;;;;;;;6.35;1.75;;;;;;;;;;6096101;23;20423;-81
2021/06/21 13:39:28;;;;;;;4.80;1.92;;;;;;;;;;6072213;23;20092;-81
2021/06/21 13:41:59;;;;;;;12.48;2.38;;;;;;;;;;6096655;23;20013;-80
2021/06/21 13:44:25;;;;;;;7.88;1.98;;;31.40;84.60;;;;;;6096448;23;20010;-83